Time;durP1;ratioP1;P1;durP2;ratioP2;P2;SDS_P1;SDS_P2;PMS_P1;PMS_P2;Temp;Humidity;BMP_temperature;BMP_pressure;BME280_temperature;BME280_humidity;BME280_pressure;Samples;Min_cycle;Max_cycle;Signal;HPM_P1;HPM_P2
2022/06/12 00:02:11;;;;;;;1.50;1.50;;;17.90;95.30;;;;;;5041139;28;20582;-75
2022/06/12 00:04:37;;;;;;;1.15;1.15;;;17.90;95.60;;;;;;5042055;28;20211;-76
2022/06/12 00:07:03;;;;;;;1.80;1.70;;;17.90;95.50;;;;;;5041322;28;20187;-75
2022/06/12 00:09:29;;;;;;;1.40;1.40;;;17.90;96.00;;;;;;5042920;28;20325;-75
2022/06/12 00:11:55;;;;;;;1.60;1.60;;;17.90;95.50;;;;;;5042063;28;20283;-75
2022/06/12 00:14:21;;;;;;;1.55;1.45;;;17.90;95.80;;;;;;5041055;28;20207;-75
2022/06/12 00:16:46;;;;;;;1.30;1.30;;;17.80;96.50;;;;;;5042598;28;20199;-75
2022/06/12 00:19:13;;;;;;;1.30;1.30;;;17.80;96.20;;;;;;5043693;28;20191;-75
2022/06/12 00:21:40;;;;;;;1.58;1.58;;;17.90;95.80;;;;;;5043090;28;20179;-75
2022/06/12 00:24:11;;;;;;;1.52;1.52;;;17.80;95.90;;;;;;5043888;28;20221;-74
2022/06/12 00:26:43;;;;;;;1.40;1.40;;;17.80;96.00;;;;;;5043336;28;20684;-74
2022/06/12 00:29:12;;;;;;;1.42;1.42;;;17.80;95.80;;;;;;5039021;28;20196;-74
2022/06/12 00:31:41;;;;;;;1.65;1.60;;;17.80;96.10;;;;;;5040147;28;20722;-75
2022/06/12 00:34:07;;;;;;;1.30;1.30;;;17.90;95.90;;;;;;5042186;28;20243;-75
2022/06/12 00:36:33;;;;;;;1.85;1.85;;;17.80;96.00;;;;;;5040010;28;20637;-75
2022/06/12 00:39:00;;;;;;;1.70;1.63;;;17.80;96.40;;;;;;5043531;28;20210;-75
2022/06/12 00:41:26;;;;;;;1.92;1.83;;;17.80;96.70;;;;;;5043087;28;20184;-75
2022/06/12 00:43:52;;;;;;;1.63;1.52;;;17.80;96.60;;;;;;5040460;28;20210;-75
2022/06/12 00:46:38;;;;;;;1.38;1.38;;;17.80;96.60;;;;;;5039987;28;20207;-74
2022/06/12 00:49:15;;;;;;;4.40;1.65;;;17.80;96.60;;;;;;5038004;28;20889;-75
2022/06/12 00:51:43;;;;;;;1.95;1.95;;;17.70;97.00;;;;;;5035458;28;20675;-75
2022/06/12 00:54:10;;;;;;;4.03;1.67;;;17.70;96.70;;;;;;5040345;28;20731;-74
2022/06/12 00:56:39;;;;;;;2.72;1.67;;;17.70;97.10;;;;;;5041814;28;20187;-74
2022/06/12 00:59:25;;;;;;;3.35;1.77;;;17.60;97.00;;;;;;5038592;28;20186;-74
2022/06/12 01:01:52;;;;;;;2.30;1.40;;;17.70;96.80;;;;;;5038419;28;20187;-74
2022/06/12 01:07:09;;;;;;;1.42;1.40;;;17.60;97.10;;;;;;5040496;28;20207;-74
2022/06/12 01:09:40;;;;;;;3.63;1.48;;;17.60;97.60;;;;;;5037873;28;20223;-74
2022/06/12 01:12:09;;;;;;;1.77;1.77;;;17.50;97.70;;;;;;5036662;28;20213;-74
2022/06/12 01:14:44;;;;;;;1.55;1.45;;;17.60;97.40;;;;;;5041928;28;20607;-75
2022/06/12 01:17:11;;;;;;;1.58;1.52;;;17.50;97.60;;;;;;5039242;28;20888;-76
2022/06/12 01:19:39;;;;;;;1.50;1.45;;;17.50;97.80;;;;;;5041670;28;20215;-74
2022/06/12 01:22:18;;;;;;;1.70;1.60;;;17.50;97.70;;;;;;5042122;28;20187;-74
2022/06/12 01:25:08;;;;;;;2.83;1.83;;;17.50;97.50;;;;;;5036024;28;20211;-74
2022/06/12 01:28:12;;;;;;;2.05;1.88;;;17.50;97.30;;;;;;5040259;28;20183;-75
2022/06/12 01:30:44;;;;;;;1.42;1.42;;;17.50;97.00;;;;;;5038391;28;20253;-74
2022/06/12 01:33:32;;;;;;;2.25;2.10;;;17.50;97.50;;;;;;5041555;28;20191;-75
2022/06/12 01:36:08;;;;;;;3.50;1.73;;;17.50;97.20;;;;;;5039203;28;20191;-74
2022/06/12 01:38:55;;;;;;;1.95;1.85;;;17.50;97.20;;;;;;5041672;28;20183;-75
2022/06/12 01:41:29;;;;;;;2.25;2.08;;;17.40;97.40;;;;;;5035723;28;20849;-76
2022/06/12 01:44:12;;;;;;;1.48;1.48;;;17.40;97.80;;;;;;5038694;28;20861;-76
2022/06/12 01:46:59;;;;;;;6.75;1.98;;;17.40;97.40;;;;;;5040564;28;20275;-75
2022/06/12 01:49:29;;;;;;;2.72;1.50;;;17.50;97.10;;;;;;5040052;28;20180;-74
2022/06/12 01:52:30;;;;;;;1.85;1.85;;;17.50;97.20;;;;;;5041642;28;20276;-75
2022/06/12 01:55:01;;;;;;;1.83;1.83;;;17.40;97.20;;;;;;4978118;28;20229;-75
2022/06/12 01:57:38;;;;;;;1.67;1.67;;;17.50;97.00;;;;;;4976260;28;20307;-75
2022/06/12 02:00:18;;;;;;;3.25;1.73;;;17.50;96.70;;;;;;4977963;28;20213;-75
2022/06/12 02:02:49;;;;;;;1.95;1.85;;;17.50;96.70;;;;;;4975525;28;20196;-76
2022/06/12 02:05:27;;;;;;;1.50;1.50;;;17.50;96.60;;;;;;4977047;28;20181;-75
2022/06/12 02:08:14;;;;;;;1.95;1.95;;;17.50;96.50;;;;;;4978091;28;20189;-75
2022/06/12 02:10:42;;;;;;;1.60;1.50;;;17.60;96.50;;;;;;4978255;28;20194;-74
2022/06/12 02:13:19;;;;;;;1.92;1.90;;;17.50;96.70;;;;;;4981939;28;20919;-74
2022/06/12 02:16:00;;;;;;;2.00;1.90;;;17.50;96.90;;;;;;4983767;28;20244;-75
2022/06/12 02:18:34;;;;;;;1.55;1.55;;;17.40;97.00;;;;;;4983246;28;20197;-75
2022/06/12 02:21:09;;;;;;;1.38;1.38;;;17.40;97.00;;;;;;4965998;28;20193;-75
2022/06/12 02:23:45;;;;;;;1.67;1.67;;;17.50;96.90;;;;;;4984786;28;20473;-74
2022/06/12 02:26:17;;;;;;;1.75;1.70;;;17.40;97.20;;;;;;4984923;28;20208;-75
2022/06/12 02:28:47;;;;;;;4.15;1.80;;;17.40;97.00;;;;;;4983856;28;20273;-75
2022/06/12 02:31:19;;;;;;;1.60;1.60;;;17.40;97.20;;;;;;4978696;28;20214;-74
2022/06/12 02:33:50;;;;;;;1.80;1.80;;;17.40;97.20;;;;;;5045424;28;20266;-74
2022/06/12 02:36:26;;;;;;;1.55;1.45;;;17.40;97.20;;;;;;5045826;28;20183;-74
2022/06/12 02:38:51;;;;;;;1.92;1.83;;;17.40;97.10;;;;;;5043735;28;20687;-74
2022/06/12 02:41:31;;;;;;;1.63;1.63;;;17.40;97.40;;;;;;5043696;28;20203;-75
2022/06/12 02:44:02;;;;;;;2.42;1.65;;;17.40;96.90;;;;;;5042598;28;20257;-75
2022/06/12 02:46:36;;;;;;;2.20;2.20;;;17.40;97.10;;;;;;5045062;28;20183;-75
2022/06/12 02:49:02;;;;;;;1.58;1.48;;;17.40;97.20;;;;;;5046652;28;20191;-75
2022/06/12 02:51:43;;;;;;;1.40;1.40;;;17.40;97.20;;;;;;5045053;28;20183;-74
2022/06/12 02:54:17;;;;;;;1.40;1.40;;;17.40;96.90;;;;;;5043752;28;20326;-75
2022/06/12 02:56:49;;;;;;;1.33;1.33;;;17.40;96.90;;;;;;5044582;28;20271;-75
2022/06/12 02:59:30;;;;;;;3.28;1.90;;;17.40;97.10;;;;;;5043855;28;20191;-75
2022/06/12 03:02:02;;;;;;;2.00;1.90;;;17.40;97.10;;;;;;5044085;28;20184;-74
2022/06/12 03:04:43;;;;;;;1.67;1.67;;;17.30;97.20;;;;;;5041434;28;20211;-74
2022/06/12 03:07:09;;;;;;;1.70;1.70;;;17.30;97.20;;;;;;5046553;28;20269;-74
2022/06/12 03:09:36;;;;;;;1.73;1.73;;;17.30;97.40;;;;;;5043633;28;20376;-75
2022/06/12 03:12:03;;;;;;;2.00;2.00;;;17.30;97.10;;;;;;5045496;28;20668;-75
2022/06/12 03:14:29;;;;;;;1.75;1.75;;;17.30;97.30;;;;;;5045077;28;20309;-75
2022/06/12 03:16:55;;;;;;;1.83;1.83;;;17.30;97.50;;;;;;5042817;28;20721;-74
2022/06/12 03:19:30;;;;;;;1.80;1.80;;;17.30;97.40;;;;;;5043648;28;20191;-74
2022/06/12 03:22:07;;;;;;;2.03;2.00;;;17.30;97.70;;;;;;5046407;28;20226;-74
2022/06/12 03:24:36;;;;;;;2.10;2.10;;;17.20;97.40;;;;;;5041997;28;20190;-74
2022/06/12 03:27:21;;;;;;;2.17;2.03;;;17.30;97.60;;;;;;5046566;28;20739;-74
2022/06/12 03:30:23;;;;;;;2.25;2.15;;;17.30;97.40;;;;;;5043203;28;20271;-75
2022/06/12 03:32:51;;;;;;;1.75;1.65;;;17.30;97.20;;;;;;5041465;28;20187;-75
2022/06/12 03:35:42;;;;;;;2.08;2.00;;;17.30;97.20;;;;;;5044943;28;20842;-74
2022/06/12 03:38:17;;;;;;;2.15;2.15;;;17.30;97.20;;;;;;5043615;28;20427;-75
2022/06/12 03:41:13;;;;;;;2.50;2.40;;;17.40;96.90;;;;;;5044854;28;20179;-75
2022/06/12 03:44:02;;;;;;;2.13;2.03;;;17.40;96.90;;;;;;5042438;28;20210;-75
2022/06/12 03:46:43;;;;;;;2.22;2.13;;;17.40;96.90;;;;;;5043788;28;20206;-74
2022/06/12 03:49:32;;;;;;;2.20;2.20;;;17.40;96.90;;;;;;5042156;28;20190;-74
2022/06/12 03:52:02;;;;;;;1.77;1.75;;;17.40;96.90;;;;;;5043883;28;20190;-75
2022/06/12 03:54:33;;;;;;;2.10;2.00;;;17.40;97.20;;;;;;5044770;28;20212;-74
2022/06/12 04:00:16;;;;;;;2.20;2.20;;;17.20;97.60;;;;;;5043168;28;20205;-74
2022/06/12 04:02:43;;;;;;;2.85;2.72;;;17.30;97.70;;;;;;5039475;28;20680;-75
2022/06/12 04:05:14;;;;;;;2.40;2.35;;;17.20;98.10;;;;;;5038014;28;20212;-75
2022/06/12 04:07:45;;;;;;;2.42;2.33;;;17.20;98.20;;;;;;5043833;28;20209;-74
2022/06/12 04:10:19;;;;;;;1.90;1.90;;;17.20;98.00;;;;;;5043418;28;20743;-75
2022/06/12 04:12:46;;;;;;;2.10;2.10;;;17.30;98.00;;;;;;5044171;28;20190;-74
2022/06/12 04:15:22;;;;;;;2.55;2.35;;;17.20;97.90;;;;;;5040631;28;20215;-74
2022/06/12 04:17:48;;;;;;;2.75;2.65;;;17.30;98.10;;;;;;5041989;28;20183;-76
2022/06/12 04:20:22;;;;;;;3.05;2.85;;;17.30;97.90;;;;;;5042368;28;20176;-75
2022/06/12 04:22:59;;;;;;;2.65;2.45;;;17.40;97.70;;;;;;5037491;28;20708;-74
2022/06/12 04:25:41;;;;;;;2.60;2.50;;;17.40;97.80;;;;;;5041801;28;20994;-75
2022/06/12 04:28:27;;;;;;;2.50;2.35;;;17.30;98.00;;;;;;5042317;28;20183;-75
2022/06/12 04:30:53;;;;;;;2.65;2.55;;;17.30;98.10;;;;;;5043649;28;20183;-75
2022/06/12 04:33:23;;;;;;;3.38;3.10;;;17.20;98.30;;;;;;5041436;28;20266;-75
2022/06/12 04:35:59;;;;;;;2.85;2.75;;;17.30;98.30;;;;;;5041321;28;20326;-74
2022/06/12 04:38:26;;;;;;;3.10;3.00;;;17.30;98.00;;;;;;5040240;28;20214;-74
2022/06/12 04:40:52;;;;;;;3.55;3.25;;;17.40;97.90;;;;;;5039842;28;20183;-74
2022/06/12 04:43:18;;;;;;;2.83;2.72;;;17.30;98.20;;;;;;5042205;28;20190;-74
2022/06/12 04:45:44;;;;;;;2.47;2.38;;;17.30;98.30;;;;;;5040100;28;20188;-74
2022/06/12 04:48:20;;;;;;;3.63;3.42;;;17.40;98.10;;;;;;5034242;28;20199;-74
2022/06/12 04:50:47;;;;;;;2.53;2.42;;;17.50;98.10;;;;;;5040652;28;20187;-74
2022/06/12 04:53:12;;;;;;;2.40;2.30;;;17.50;97.90;;;;;;5043518;28;20237;-74
2022/06/12 04:55:38;;;;;;;2.38;2.38;;;17.50;97.90;;;;;;5041740;28;20567;-75
2022/06/12 04:58:05;;;;;;;2.42;2.33;;;17.50;98.00;;;;;;5041945;28;20204;-75
2022/06/12 05:00:34;;;;;;;3.25;3.15;;;17.50;97.80;;;;;;5041205;28;20187;-75
2022/06/12 05:03:00;;;;;;;2.70;2.60;;;17.50;97.70;;;;;;5044034;28;20585;-74
2022/06/12 05:05:26;;;;;;;3.53;3.33;;;17.50;97.70;;;;;;5041743;28;20294;-74
2022/06/12 05:07:52;;;;;;;2.83;2.72;;;17.40;98.00;;;;;;5042409;28;20270;-74
2022/06/12 05:10:18;;;;;;;3.15;3.05;;;17.50;97.70;;;;;;5044351;28;20795;-74
2022/06/12 05:12:44;;;;;;;2.58;2.47;;;17.60;97.50;;;;;;5037975;28;20184;-75
2022/06/12 05:15:12;;;;;;;2.90;2.80;;;17.60;97.80;;;;;;5043550;28;20215;-74
2022/06/12 05:17:40;;;;;;;2.88;2.78;;;17.60;97.60;;;;;;5043745;28;20241;-74
2022/06/12 05:20:07;;;;;;;2.78;2.67;;;17.70;97.40;;;;;;5040865;28;20298;-75
2022/06/12 05:22:32;;;;;;;2.95;2.85;;;17.80;97.30;;;;;;5038391;28;20218;-75
2022/06/12 05:24:58;;;;;;;2.72;2.58;;;17.90;97.20;;;;;;5044385;28;20216;-75
2022/06/12 05:27:24;;;;;;;2.33;2.22;;;18.00;96.70;;;;;;5041744;28;20241;-75
2022/06/12 05:29:52;;;;;;;3.00;2.80;;;18.00;96.70;;;;;;5043168;28;20529;-75
2022/06/12 05:32:21;;;;;;;2.70;2.60;;;18.10;96.60;;;;;;5042849;28;20265;-76
2022/06/12 05:34:47;;;;;;;3.00;2.90;;;18.20;96.20;;;;;;5042710;28;20261;-75
2022/06/12 05:37:12;;;;;;;2.65;2.60;;;18.20;95.90;;;;;;5039829;28;20184;-75
2022/06/12 05:39:39;;;;;;;3.80;3.60;;;18.20;95.80;;;;;;5039451;28;20207;-75
2022/06/12 05:42:05;;;;;;;2.83;2.55;;;18.20;95.40;;;;;;5039184;28;20179;-75
2022/06/12 05:44:32;;;;;;;3.10;3.00;;;18.30;95.60;;;;;;5041659;28;20176;-75
2022/06/12 05:46:58;;;;;;;2.83;2.72;;;18.30;95.20;;;;;;5041758;28;20698;-75
2022/06/12 05:49:25;;;;;;;2.90;2.80;;;18.30;95.20;;;;;;5040784;28;20223;-75
2022/06/12 05:51:51;;;;;;;2.97;2.75;;;18.50;94.90;;;;;;5040881;28;20183;-75
2022/06/12 05:54:17;;;;;;;2.97;2.88;;;18.50;94.40;;;;;;5039856;28;20960;-74
2022/06/12 05:56:42;;;;;;;2.75;2.65;;;18.50;94.60;;;;;;5039804;28;20206;-75
2022/06/12 05:59:08;;;;;;;2.60;2.50;;;18.50;94.30;;;;;;5043053;28;20879;-75
2022/06/12 06:01:36;;;;;;;4.00;3.03;;;18.50;94.60;;;;;;5038212;28;20196;-76
2022/06/12 06:04:02;;;;;;;2.90;2.80;;;18.40;94.80;;;;;;5033512;28;20212;-75
2022/06/12 06:06:31;;;;;;;2.85;2.72;;;18.50;94.70;;;;;;5040156;28;20214;-75
2022/06/12 06:08:58;;;;;;;3.20;3.10;;;18.50;94.80;;;;;;5044206;28;20278;-75
2022/06/12 06:11:24;;;;;;;2.78;2.67;;;18.50;94.90;;;;;;5040509;28;20183;-75
2022/06/12 06:13:50;;;;;;;3.17;2.97;;;18.60;94.40;;;;;;5037207;28;20172;-75
2022/06/12 06:16:16;;;;;;;3.08;2.88;;;18.70;94.40;;;;;;5040612;28;21502;-75
2022/06/12 06:18:43;;;;;;;3.00;2.90;;;18.80;94.20;;;;;;5044393;28;20547;-74
2022/06/12 06:21:11;;;;;;;3.05;2.95;;;18.80;93.70;;;;;;5040830;28;20271;-74
2022/06/12 06:23:38;;;;;;;3.47;3.38;;;18.80;93.60;;;;;;5038754;28;20183;-74
2022/06/12 06:26:05;;;;;;;2.97;2.85;;;18.90;93.50;;;;;;5040595;28;20183;-73
2022/06/12 06:28:31;;;;;;;2.78;2.67;;;18.90;93.20;;;;;;5040818;28;20187;-74
2022/06/12 06:30:57;;;;;;;3.65;3.53;;;19.00;93.30;;;;;;5042408;28;20218;-73
2022/06/12 06:33:23;;;;;;;2.85;2.75;;;19.00;93.00;;;;;;5042229;28;20254;-72
2022/06/12 06:35:49;;;;;;;2.90;2.80;;;18.90;93.00;;;;;;5040454;28;20284;-73
2022/06/12 06:38:16;;;;;;;3.30;3.13;;;19.00;93.00;;;;;;5042847;28;20207;-73
2022/06/12 06:40:42;;;;;;;3.15;2.97;;;19.10;92.90;;;;;;5042679;28;20782;-74
2022/06/12 06:43:09;;;;;;;3.35;3.25;;;19.10;92.70;;;;;;5042441;28;20653;-74
2022/06/12 06:48:20;;;;;;;2.83;2.72;;;19.20;92.70;;;;;;5038322;28;20237;-75
2022/06/12 06:50:46;;;;;;;3.00;2.90;;;19.20;92.80;;;;;;5038709;28;20194;-75
2022/06/12 06:53:12;;;;;;;2.97;2.88;;;19.20;92.90;;;;;;5042300;28;20184;-75
2022/06/12 06:55:38;;;;;;;3.25;3.03;;;19.20;92.80;;;;;;5036950;28;20726;-75
2022/06/12 06:58:10;;;;;;;3.20;3.00;;;19.30;92.70;;;;;;5044293;28;20186;-75
2022/06/12 07:00:37;;;;;;;3.25;2.85;;;19.30;92.70;;;;;;5045537;28;20557;-75
2022/06/12 07:03:03;;;;;;;3.75;3.65;;;19.30;92.60;;;;;;5044301;28;20811;-75
2022/06/12 07:05:29;;;;;;;3.45;3.25;;;19.30;92.50;;;;;;5045297;28;20249;-73
2022/06/12 07:07:55;;;;;;;4.03;3.55;;;;;;;;;;5045223;28;20190;-75
2022/06/12 07:10:25;;;;;;;3.60;3.47;;;19.40;92.30;;;;;;5042294;28;20212;-74
2022/06/12 07:12:51;;;;;;;4.07;3.85;;;19.50;92.00;;;;;;5045648;28;20180;-74
2022/06/12 07:15:18;;;;;;;3.92;3.63;;;19.50;91.90;;;;;;5045347;28;20242;-74
2022/06/12 07:17:45;;;;;;;3.30;3.13;;;19.50;91.90;;;;;;5047252;28;20259;-74
2022/06/12 07:20:14;;;;;;;2.95;2.85;;;19.50;92.10;;;;;;5045100;28;20183;-75
2022/06/12 07:22:40;;;;;;;3.35;3.25;;;19.60;91.70;;;;;;5043726;28;20270;-74
2022/06/12 07:25:06;;;;;;;3.10;2.92;;;19.60;92.00;;;;;;5046665;28;20274;-75
2022/06/12 07:27:32;;;;;;;3.70;3.47;;;19.70;91.60;;;;;;5042906;28;20186;-75
2022/06/12 07:29:58;;;;;;;3.33;3.10;;;19.70;91.50;;;;;;5045563;28;20191;-75
2022/06/12 07:32:25;;;;;;;2.83;2.72;;;19.70;91.40;;;;;;5044357;28;20183;-75
2022/06/12 07:34:52;;;;;;;3.58;3.38;;;19.70;91.40;;;;;;5041378;28;20204;-75
2022/06/12 07:37:17;;;;;;;3.13;3.00;;;19.80;91.50;;;;;;5043548;28;20176;-74
2022/06/12 07:39:44;;;;;;;3.25;3.15;;;19.80;91.50;;;;;;5044587;28;20191;-74
2022/06/12 07:42:10;;;;;;;3.00;2.90;;;19.90;91.00;;;;;;5040262;28;20286;-74
2022/06/12 07:44:36;;;;;;;3.47;3.28;;;19.90;90.90;;;;;;5043602;28;20262;-74
2022/06/12 07:47:02;;;;;;;3.70;3.47;;;20.00;91.00;;;;;;5042332;28;20191;-73
2022/06/12 07:49:30;;;;;;;3.05;2.95;;;20.10;90.90;;;;;;5043203;28;20182;-74
2022/06/12 07:51:57;;;;;;;4.13;3.65;;;20.10;91.00;;;;;;5044868;28;20311;-73
2022/06/12 07:54:24;;;;;;;3.30;3.15;;;20.00;90.60;;;;;;5044110;28;20322;-74
2022/06/12 07:56:50;;;;;;;2.92;2.83;;;20.10;90.90;;;;;;5044525;28;20184;-75
2022/06/12 07:59:16;;;;;;;2.72;2.63;;;20.10;90.90;;;;;;5036857;28;21737;-74
2022/06/12 08:01:42;;;;;;;3.05;2.95;;;20.20;91.00;;;;;;5041023;28;20180;-74
2022/06/12 08:04:09;;;;;;;3.33;3.22;;;20.30;90.90;;;;;;5044066;28;20238;-76
2022/06/12 08:06:35;;;;;;;9.05;3.47;;;20.30;90.80;;;;;;5043227;28;20179;-74
2022/06/12 08:09:01;;;;;;;2.83;2.72;;;20.50;90.20;;;;;;5042502;28;20207;-73
2022/06/12 08:11:27;;;;;;;3.10;3.00;;;20.50;90.10;;;;;;5044470;28;20184;-74
2022/06/12 08:13:54;;;;;;;3.33;3.13;;;20.60;89.60;;;;;;5043310;28;21136;-76
2022/06/12 08:16:21;;;;;;;2.97;2.97;;;20.60;89.80;;;;;;5043469;28;20608;-76
2022/06/12 08:18:47;;;;;;;3.50;3.30;;;20.70;89.10;;;;;;5043072;28;20272;-76
2022/06/12 08:21:14;;;;;;;2.90;2.80;;;20.70;89.50;;;;;;5042505;28;20188;-73
2022/06/12 08:23:53;;;;;;;3.25;3.15;;;20.80;89.50;;;;;;5043886;28;20179;-75
2022/06/12 08:26:26;;;;;;;3.20;3.00;;;20.80;89.30;;;;;;5043460;28;20187;-75
2022/06/12 08:28:57;;;;;;;3.65;3.35;;;20.80;89.50;;;;;;5043248;28;20548;-75
2022/06/12 08:31:30;;;;;;;3.00;2.90;;;20.80;89.70;;;;;;5040463;28;20183;-75
2022/06/12 08:34:00;;;;;;;3.45;3.33;;;20.80;90.10;;;;;;5040071;28;20635;-75
2022/06/12 08:36:26;;;;;;;3.10;2.85;;;20.70;89.10;;;;;;5040492;28;20183;-73
2022/06/12 08:38:52;;;;;;;3.17;3.03;;;20.80;90.00;;;;;;5044433;28;20187;-75
2022/06/12 08:41:38;;;;;;;4.10;3.80;;;20.80;90.10;;;;;;5042548;28;20226;-74
2022/06/12 08:44:16;;;;;;;4.40;4.00;;;20.80;90.90;;;;;;5037733;28;20172;-73
2022/06/12 08:47:17;;;;;;;3.70;3.40;;;20.80;90.30;;;;;;5042534;28;20665;-73
2022/06/12 08:50:06;;;;;;;3.88;3.58;;;20.90;90.50;;;;;;5038885;28;20228;-72
2022/06/12 08:52:52;;;;;;;3.53;3.33;;;21.00;91.20;;;;;;5039698;28;20221;-73
2022/06/12 08:55:25;;;;;;;3.75;3.45;;;21.10;90.70;;;;;;5041802;28;20270;-73
2022/06/12 08:58:03;;;;;;;4.22;4.03;;;21.20;91.10;;;;;;5042837;28;20433;-73
2022/06/12 09:00:35;;;;;;;5.88;5.38;;;21.40;90.50;;;;;;5034063;28;20687;-73
2022/06/12 09:03:03;;;;;;;5.25;4.85;;;21.50;89.70;;;;;;5041084;28;20191;-73
2022/06/12 09:05:46;;;;;;;4.78;4.47;;;21.50;89.60;;;;;;5038158;28;20195;-73
2022/06/12 09:08:43;;;;;;;3.88;3.67;;;21.50;89.50;;;;;;5040289;28;20836;-74
2022/06/12 09:11:14;;;;;;;4.35;4.05;;;21.50;89.20;;;;;;5036983;28;20227;-73
2022/06/12 09:13:56;;;;;;;3.08;2.97;;;21.50;89.50;;;;;;5040352;28;20191;-73
2022/06/12 09:16:46;;;;;;;3.17;3.08;;;21.40;89.20;;;;;;5042218;28;20187;-72
2022/06/12 09:19:26;;;;;;;3.17;3.08;;;21.30;89.90;;;;;;5039409;28;20295;-74
2022/06/12 09:22:09;;;;;;;3.85;3.20;;;21.30;89.90;;;;;;5036738;28;20218;-75
2022/06/12 09:24:59;;;;;;;2.95;2.85;;;21.30;90.80;;;;;;5035513;28;20323;-75
2022/06/12 09:27:28;;;;;;;2.95;2.78;;;21.40;90.70;;;;;;5034163;28;20784;-75
2022/06/12 09:29:54;;;;;;;3.30;2.67;;;21.40;90.80;;;;;;5039035;28;20263;-75
2022/06/12 09:32:24;;;;;;;3.47;2.90;;;21.50;90.50;;;;;;5039401;28;20203;-76
2022/06/12 09:35:05;;;;;;;3.63;3.22;;;21.60;90.80;;;;;;5032637;28;20261;-73
2022/06/12 09:40:41;;;;;;;2.50;2.40;;;21.90;90.90;;;;;;5039758;28;20202;-73
2022/06/12 09:43:52;;;;;;;2.83;2.72;;;22.10;89.20;;;;;;5033075;28;20191;-73
2022/06/12 09:46:36;;;;;;;3.00;2.90;;;22.20;88.50;;;;;;4988214;28;20290;-73
2022/06/12 09:49:29;;;;;;;3.33;3.13;;;22.00;87.40;;;;;;4997249;28;20219;-73
2022/06/12 09:52:07;;;;;;;3.25;3.08;;;22.10;87.60;;;;;;4997543;28;20948;-73
2022/06/12 09:54:44;;;;;;;2.65;2.55;;;22.10;88.20;;;;;;4996993;28;20212;-76
2022/06/12 09:57:39;;;;;;;2.80;2.70;;;22.10;87.60;;;;;;4996321;28;20932;-73
2022/06/12 10:00:40;;;;;;;3.53;3.22;;;22.10;87.50;;;;;;4990475;28;20721;-72
2022/06/12 10:03:14;;;;;;;2.83;2.63;;;22.10;87.10;;;;;;4992835;28;20733;-73
2022/06/12 10:05:59;;;;;;;3.53;3.33;;;22.00;87.10;;;;;;4995782;28;20231;-72
2022/06/12 10:08:37;;;;;;;2.75;2.65;;;21.90;87.20;;;;;;4991099;28;20189;-72
2022/06/12 10:11:16;;;;;;;3.30;3.08;;;21.80;87.40;;;;;;4994785;28;20201;-76
2022/06/12 10:13:51;;;;;;;3.20;3.10;;;21.70;87.80;;;;;;4994582;28;20607;-75
2022/06/12 10:16:29;;;;;;;2.78;2.67;;;21.50;87.60;;;;;;4999909;28;20197;-82
2022/06/12 10:19:11;;;;;;;3.70;3.38;;;21.40;87.30;;;;;;5000160;28;20878;-76
2022/06/12 10:21:40;;;;;;;5.85;5.38;;;21.20;88.50;;;;;;4997385;28;20220;-75
2022/06/12 10:24:10;;;;;;;5.72;5.20;;;21.10;88.70;;;;;;5040438;28;20218;-76
2022/06/12 10:26:36;;;;;;;3.85;3.65;;;20.90;89.00;;;;;;5041115;28;20192;-76
2022/06/12 10:29:12;;;;;;;4.78;3.10;;;20.80;89.10;;;;;;5039134;28;20183;-74
2022/06/12 10:31:59;;;;;;;2.80;2.70;;;20.80;89.30;;;;;;5037426;28;20175;-73
2022/06/12 10:34:30;;;;;;;5.00;3.17;;;20.80;89.00;;;;;;5040219;28;20218;-75
2022/06/12 10:37:09;;;;;;;2.60;2.50;;;20.80;89.70;;;;;;5044653;28;21002;-75
2022/06/12 10:39:35;;;;;;;2.63;2.53;;;21.00;90.70;;;;;;5042363;28;20180;-75
2022/06/12 10:42:06;;;;;;;2.38;2.28;;;21.00;90.20;;;;;;5042760;28;20202;-78
2022/06/12 10:44:56;;;;;;;2.40;2.40;;;21.20;89.50;;;;;;5039043;28;20191;-75
2022/06/12 10:47:43;;;;;;;2.63;2.55;;;21.30;88.90;;;;;;5042116;28;20188;-76
2022/06/12 10:50:48;;;;;;;1.65;1.65;;;21.30;89.00;;;;;;5043034;28;20279;-76
2022/06/12 10:53:17;;;;;;;2.33;2.22;;;21.40;88.30;;;;;;4973298;28;20760;-76
2022/06/12 10:55:54;;;;;;;2.55;2.45;;;21.40;89.00;;;;;;4977783;28;20244;-73
2022/06/12 10:58:41;;;;;;;1.83;1.75;;;21.60;89.40;;;;;;4969062;28;20288;-72
2022/06/12 11:01:43;;;;;;;5.05;2.53;;;21.70;89.20;;;;;;4978121;28;20322;-76
2022/06/12 11:04:30;;;;;;;5.55;2.08;;;22.00;89.50;;;;;;4897295;29;20805;-73
2022/06/12 11:07:11;;;;;;;2.28;2.28;;;22.30;88.60;;;;;;4902768;29;20271;-72
2022/06/12 11:10:01;;;;;;;2.10;2.00;;;22.60;87.30;;;;;;4900213;29;20208;-71
2022/06/12 11:12:39;;;;;;;2.13;2.03;;;23.00;86.60;;;;;;4895562;29;20667;-73
2022/06/12 11:15:29;;;;;;;2.45;2.28;;;23.20;86.60;;;;;;4906859;29;20322;-78
2022/06/12 11:18:22;;;;;;;2.38;2.05;;;23.50;85.20;;;;;;4906096;29;20204;-77
2022/06/12 11:20:57;;;;;;;2.42;2.42;;;23.80;82.60;;;;;;4902037;29;20956;-77
2022/06/12 11:23:33;;;;;;;2.10;2.08;;;24.10;83.20;;;;;;4907257;29;20200;-76
2022/06/12 11:26:14;;;;;;;2.35;2.25;;;24.50;82.60;;;;;;4902420;29;20279;-76
2022/06/12 11:28:42;;;;;;;1.95;1.85;;;24.80;79.40;;;;;;4916672;28;20274;-76
2022/06/12 11:31:08;;;;;;;2.28;2.17;;;25.10;80.10;;;;;;4984054;28;20193;-76
2022/06/12 11:33:51;;;;;;;2.35;2.35;;;25.20;80.10;;;;;;4979140;28;20243;-76
2022/06/12 11:37:01;;;;;;;2.03;2.03;;;25.50;79.90;;;;;;4970701;28;20312;-76
2022/06/12 11:40:14;;;;;;;3.63;3.42;;;25.50;77.50;;;;;;4980327;28;20233;-76
2022/06/12 11:42:51;;;;;;;2.88;2.78;;;25.40;79.30;;;;;;5032773;28;20227;-76
2022/06/12 11:45:45;;;;;;;2.50;2.40;;;25.40;79.30;;;;;;5015281;28;20333;-76
2022/06/12 11:48:32;;;;;;;2.33;2.22;;;25.30;79.90;;;;;;5015912;28;20558;-75
2022/06/12 11:50:58;;;;;;;2.80;2.25;;;25.30;79.00;;;;;;5033510;28;20203;-76
2022/06/12 11:54:01;;;;;;;2.22;2.13;;;25.20;78.90;;;;;;5034344;28;20187;-76
2022/06/12 11:56:46;;;;;;;2.47;2.38;;;25.40;80.40;;;;;;5033879;28;20191;-76
2022/06/12 11:59:33;;;;;;;2.55;2.45;;;25.70;78.80;;;;;;5031643;28;20188;-76
2022/06/12 12:02:07;;;;;;;2.97;2.88;;;25.90;77.40;;;;;;5029704;28;20580;-76
2022/06/12 12:05:06;;;;;;;3.15;2.95;;;25.90;76.90;;;;;;5017872;28;20264;-76
2022/06/12 12:07:40;;;;;;;2.58;2.47;;;25.80;76.70;;;;;;5030668;28;20192;-75
2022/06/12 12:10:19;;;;;;;5.35;2.30;;;25.50;78.20;;;;;;5034479;28;20636;-76
2022/06/12 12:12:53;;;;;;;2.80;2.45;;;25.20;80.00;;;;;;5030318;28;20802;-76
2022/06/12 12:15:28;;;;;;;3.22;2.53;;;25.10;79.00;;;;;;5030597;28;20238;-75
2022/06/12 12:17:56;;;;;;;2.67;2.58;;;25.00;79.60;;;;;;5036342;28;20199;-75
2022/06/12 12:20:22;;;;;;;4.68;3.38;;;24.80;80.10;;;;;;5035747;28;20180;-75
2022/06/12 12:23:03;;;;;;;2.15;2.15;;;24.50;80.50;;;;;;5038709;28;20195;-75
2022/06/12 12:25:50;;;;;;;2.72;2.53;;;24.30;80.20;;;;;;5037791;28;20214;-75
2022/06/12 12:28:39;;;;;;;3.17;3.00;;;23.90;81.10;;;;;;5032989;28;20183;-75
2022/06/12 12:31:09;;;;;;;2.60;2.50;;;23.70;82.60;;;;;;5037799;28;20187;-75
2022/06/12 12:33:37;;;;;;;2.83;2.67;;;23.50;82.50;;;;;;5037025;28;20194;-75
2022/06/12 12:42:37;;;;;;;1.67;1.67;;;23.90;84.00;;;;;;4996183;28;20251;-75
2022/06/12 12:45:27;;;;;;;2.38;2.25;;;24.50;83.00;;;;;;4993790;28;20200;-75
2022/06/12 12:48:09;;;;;;;2.33;2.30;;;25.00;82.40;;;;;;4998042;28;20203;-75
2022/06/12 12:50:50;;;;;;;2.00;2.00;;;25.40;80.20;;;;;;4997337;28;20188;-75
2022/06/12 12:53:38;;;;;;;2.53;2.45;;;25.70;80.00;;;;;;4998389;28;20291;-75
2022/06/12 12:56:13;;;;;;;2.88;2.78;;;25.80;79.20;;;;;;4996751;28;20225;-76
2022/06/12 12:58:41;;;;;;;3.08;2.97;;;25.80;79.00;;;;;;4996225;28;20228;-74
2022/06/12 13:01:37;;;;;;;2.90;2.80;;;25.90;79.00;;;;;;4980135;28;20267;-75
2022/06/12 13:04:31;;;;;;;4.10;3.90;;;25.90;77.90;;;;;;4993329;28;20213;-74
2022/06/12 13:07:11;;;;;;;3.28;3.17;;;26.10;78.30;;;;;;4996616;28;20189;-75
2022/06/12 13:09:40;;;;;;;4.13;3.88;;;26.50;77.80;;;;;;4995987;28;20200;-76
2022/06/12 13:12:28;;;;;;;3.83;3.53;;;27.30;75.70;;;;;;4998800;28;20205;-77
2022/06/12 13:15:09;;;;;;;2.38;2.17;;;27.40;75.70;;;;;;4999478;28;20221;-76
2022/06/12 13:17:46;;;;;;;2.08;1.98;;;27.90;72.70;;;;;;4984609;28;20302;-75
2022/06/12 13:20:15;;;;;;;3.22;2.30;;;28.20;71.70;;;;;;5036737;28;21054;-74
2022/06/12 13:23:00;;;;;;;2.45;2.28;;;28.30;72.20;;;;;;5040810;28;20184;-76
2022/06/12 13:25:33;;;;;;;3.00;2.90;;;28.80;71.60;;;;;;5038864;28;20981;-77
2022/06/12 13:28:00;;;;;;;3.15;3.10;;;28.90;68.80;;;;;;5041079;28;20191;-74
2022/06/12 13:30:32;;;;;;;2.10;2.10;;;29.00;70.30;;;;;;5041263;28;20172;-75
2022/06/12 13:33:13;;;;;;;2.42;2.28;;;28.70;69.00;;;;;;5041212;28;20624;-74
2022/06/12 13:35:57;;;;;;;2.17;2.13;;;28.30;67.10;;;;;;5039831;28;20225;-74
2022/06/12 13:38:49;;;;;;;2.42;2.42;;;27.90;67.90;;;;;;5040527;28;20195;-74
2022/06/12 13:41:35;;;;;;;2.15;2.05;;;27.40;70.00;;;;;;4970577;28;20233;-74
2022/06/12 13:44:31;;;;;;;1.83;1.83;;;27.00;72.20;;;;;;4961191;28;20197;-73